Lexington, Michigan
Current Conditions -  °F | °C
As of 11:00 AM on Thursday 30 Oct 2014 (Local Time) from CYZR Reporting Station
Clear Clear  
Wind Chill: 41°   Ceiling: Unl
Heat Index: 45°   Visibility: 9mi
Dew Point: 34°   Wind: 6mph
Humidity: 66%   Direction: 300°WNW
Pressure: 30.12"   Gusts: NA
Location:  43.27°N, 82.53°W
Report Text: CYZR 301500Z AUTO 30005KT 260V330 9SM CLR 07/01 A3012 RMK SLP205
Loading
Personal Weather Stations






























Interactive Weather Map
Tropical Storm Tracking
New forecast layout! Learn more

10-Day Weather Forecast

Advertisements
Track Severe Weather on mobile